Time;durP1;ratioP1;P1;durP2;ratioP2;P2;SDS_P1;SDS_P2;PMS_P1;PMS_P2;Temp;Humidity;BMP_temperature;BMP_pressure;BME280_temperature;BME280_humidity;BME280_pressure;Samples;Min_cycle;Max_cycle;Signal;HPM_P1;HPM_P2
2023/04/16 00:00:04;;;;;;;;;;;10.50;99.90;11.00;99829.00;;;;337514;28;92215;-91
2023/04/16 00:00:16;;;;;;;;;;;10.50;99.90;10.90;99828.00;;;;335163;29;94216;-90
2023/04/16 00:00:27;;;;;;;;;;;10.50;99.90;10.90;99831.00;;;;334819;29;92050;-90
2023/04/16 00:00:39;;;;;;;;;;;10.40;99.90;11.00;99821.00;;;;337644;28;96207;-91
2023/04/16 00:00:51;;;;;;;;;;;10.50;99.90;11.00;99843.00;;;;338891;28;92902;-91
2023/04/16 00:01:04;;;;;;;;;;;10.50;99.90;10.90;99834.00;;;;338924;28;96844;-90
2023/04/16 00:01:16;;;;;;;;;;;10.50;99.90;11.00;99826.00;;;;336138;28;92048;-90
2023/04/16 00:01:27;;;;;;;;;;;10.50;99.90;11.00;99834.00;;;;336374;28;95897;-90
2023/04/16 00:01:39;;;;;;;;;;;10.40;99.90;11.00;99826.00;;;;336196;28;92027;-90
2023/04/16 00:01:51;;;;;;;;;;;10.50;99.90;11.00;99830.00;;;;336343;28;95471;-90
2023/04/16 00:02:03;;;;;;;;;;;10.50;99.90;10.90;99828.00;;;;336168;28;92064;-90
2023/04/16 00:02:15;;;;;;;;;;;10.40;99.90;11.00;99827.00;;;;340395;28;94855;-91
2023/04/16 00:02:27;;;;;;;;;;;10.50;99.90;10.90;99830.00;;;;334822;29;92020;-90
2023/04/16 00:02:40;;;;;;;;;;;10.40;99.90;11.00;99839.00;;;;336385;28;95964;-90
2023/04/16 00:02:52;;;;;;;;;;;10.40;99.90;10.80;99835.00;;;;336167;28;92972;-90
2023/04/16 00:03:04;;;;;;;;;;;10.50;99.90;10.80;99839.00;;;;337430;28;95912;-90
2023/04/16 00:03:16;;;;;;;;;;;10.50;99.90;10.90;99830.00;;;;337507;28;91972;-90
2023/04/16 00:03:28;;;;;;;;;;;10.50;99.90;10.90;99838.00;;;;339021;28;95988;-90
2023/04/16 00:03:40;;;;;;;;;;;10.40;99.90;10.90;99844.00;;;;337524;28;92033;-90
2023/04/16 00:03:54;;;;;;;;;;;10.50;99.90;10.90;99836.00;;;;338937;28;96127;-91
2023/04/16 00:04:06;;;;;;;;;;;10.50;99.90;10.90;99839.00;;;;338828;28;92055;-90
2023/04/16 00:04:19;;;;;;;;;;;10.50;99.90;11.00;99826.00;;;;337657;28;96019;-91
2023/04/16 00:04:31;;;;;;;;;;;10.50;99.90;11.00;99830.00;;;;337467;28;91249;-90
2023/04/16 00:04:43;;;;;;;;;;;10.50;99.90;11.00;99843.00;;;;337754;28;94728;-90
2023/04/16 00:04:55;;;;;;;;;;;10.50;99.90;11.00;99838.00;;;;337481;28;92654;-90
2023/04/16 00:05:07;;;;;;;;;;;10.50;99.90;11.00;99836.00;;;;337492;28;95840;-91
2023/04/16 00:05:19;;;;;;;;;;;10.50;99.90;11.00;99836.00;;;;336000;28;92076;-90
2023/04/16 00:05:32;;;;;;;;;;;10.50;99.90;10.90;99825.00;;;;335064;29;95974;-90
2023/04/16 00:05:43;;;;;;;;;;;10.40;99.90;10.90;99831.00;;;;337290;28;92068;-91
2023/04/16 00:05:55;;;;;;;;;;;10.50;99.90;10.90;99838.00;;;;339010;28;96086;-90
2023/04/16 00:06:07;;;;;;;;;;;10.40;99.90;11.00;99829.00;;;;337535;28;92087;-90
2023/04/16 00:06:19;;;;;;;;;;;10.50;99.90;10.90;99835.00;;;;338857;28;94843;-90
2023/04/16 00:06:31;;;;;;;;;;;10.50;99.90;10.80;99836.00;;;;337481;28;92108;-90
2023/04/16 00:06:42;;;;;;;;;;;10.40;99.90;10.80;99837.00;;;;339071;28;94856;-90
2023/04/16 00:06:54;;;;;;;;;;;10.40;99.90;10.90;99840.00;;;;336051;28;92979;-91
2023/04/16 00:07:06;;;;;;;;;;;10.50;99.90;10.90;99828.00;;;;337712;28;94406;-90
2023/04/16 00:07:18;;;;;;;;;;;10.50;99.90;10.90;99831.00;;;;337448;28;92042;-91
2023/04/16 00:07:30;;;;;;;;;;;10.40;99.90;11.00;99835.00;;;;340447;28;95895;-90
2023/04/16 00:07:42;;;;;;;;;;;10.50;99.90;11.00;99841.00;;;;337474;28;92011;-90
2023/04/16 00:07:54;;;;;;;;;;;10.40;99.90;11.00;99833.00;;;;338990;28;96250;-91
2023/04/16 00:08:06;;;;;;;;;;;10.40;99.90;10.90;99833.00;;;;340113;28;93011;-90
2023/04/16 00:08:18;;;;;;;;;;;10.50;99.90;11.00;99840.00;;;;335118;29;95251;-90
2023/04/16 00:08:30;;;;;;;;;;;10.50;99.90;11.00;99846.00;;;;334832;29;91219;-90
2023/04/16 00:08:42;;;;;;;;;;;10.40;99.90;11.00;99834.00;;;;336398;28;94664;-90
2023/04/16 00:08:54;;;;;;;;;;;10.50;99.90;10.80;99833.00;;;;338746;28;92967;-90
2023/04/16 00:09:06;;;;;;;;;;;10.40;99.90;10.90;99829.00;;;;338855;28;95721;-90
2023/04/16 00:09:18;;;;;;;;;;;10.50;99.90;10.90;99832.00;;;;337558;28;92071;-90
2023/04/16 00:09:30;;;;;;;;;;;10.50;99.90;10.90;99836.00;;;;336532;28;94702;-91
2023/04/16 00:09:42;;;;;;;;;;;10.50;99.90;11.00;99834.00;;;;337522;28;91971;-91
2023/04/16 00:09:54;;;;;;;;;;;10.50;99.90;11.00;99833.00;;;;337726;28;95328;-90
2023/04/16 00:10:06;;;;;;;;;;;10.50;99.90;11.00;99839.00;;;;337557;28;91890;-90
2023/04/16 00:10:18;;;;;;;;;;;10.40;99.90;10.90;99830.00;;;;336410;28;95882;-90
2023/04/16 00:10:30;;;;;;;;;;;10.50;99.90;10.90;99830.00;;;;334855;29;91283;-90
2023/04/16 00:10:42;;;;;;;;;;;10.50;99.90;10.90;99841.00;;;;336403;28;96018;-90
2023/04/16 00:10:54;;;;;;;;;;;10.50;99.90;10.80;99835.00;;;;336030;28;92312;-90
2023/04/16 00:11:06;;;;;;;;;;;10.50;99.90;10.90;99839.00;;;;336130;28;96132;-90
2023/04/16 00:11:18;;;;;;;;;;;10.40;99.90;10.90;99838.00;;;;334955;29;91171;-90
2023/04/16 00:11:29;;;;;;;;;;;10.40;99.90;10.80;99837.00;;;;337718;28;94730;-90
2023/04/16 00:11:41;;;;;;;;;;;10.40;99.90;10.90;99833.00;;;;336037;28;91334;-90
2023/04/16 00:11:53;;;;;;;;;;;10.40;99.90;10.80;99839.00;;;;336104;28;94916;-90
2023/04/16 00:12:05;;;;;;;;;;;10.40;99.90;10.90;99841.00;;;;336178;28;92016;-90
2023/04/16 00:12:17;;;;;;;;;;;10.50;99.90;10.90;99830.00;;;;337749;28;95934;-90
2023/04/16 00:12:29;;;;;;;;;;;10.40;99.90;10.90;99831.00;;;;337416;28;92208;-90
2023/04/16 00:12:41;;;;;;;;;;;10.40;99.90;10.80;99839.00;;;;336539;28;94833;-90
2023/04/16 00:12:52;;;;;;;;;;;10.40;99.90;10.80;99839.00;;;;334875;29;92130;-90
2023/04/16 00:13:04;;;;;;;;;;;10.40;99.90;10.90;99834.00;;;;336459;28;95957;-90
2023/04/16 00:13:16;;;;;;;;;;;10.40;99.90;10.80;99835.00;;;;337469;28;91106;-90
2023/04/16 00:13:28;;;;;;;;;;;10.40;99.90;10.80;99837.00;;;;335270;29;95213;-91
2023/04/16 00:13:40;;;;;;;;;;;10.40;99.90;10.80;99835.00;;;;337650;28;92170;-91
2023/04/16 00:13:52;;;;;;;;;;;10.40;99.90;10.80;99843.00;;;;339065;28;94653;-90
2023/04/16 00:14:04;;;;;;;;;;;10.40;99.90;10.90;99830.00;;;;336336;28;91955;-91
2023/04/16 00:14:16;;;;;;;;;;;10.40;99.90;10.90;99836.00;;;;337916;28;95886;-90
2023/04/16 00:14:28;;;;;;;;;;;10.40;99.90;10.80;99829.00;;;;336163;28;91190;-90
2023/04/16 00:14:42;;;;;;;;;;;10.40;99.90;10.70;99842.00;;;;339116;28;95949;-90
2023/04/16 00:14:54;;;;;;;;;;;10.40;99.90;10.70;99839.00;;;;339008;28;92126;-90
2023/04/16 00:15:06;;;;;;;;;;;10.40;99.90;10.60;99834.00;;;;337815;28;96750;-90
2023/04/16 00:15:18;;;;;;;;;;;10.40;99.90;10.70;99832.00;;;;336203;28;91971;-90
2023/04/16 00:15:30;;;;;;;;;;;10.30;99.90;10.80;99839.00;;;;336488;28;95693;-91
2023/04/16 00:15:42;;;;;;;;;;;10.40;99.90;10.70;99839.00;;;;338869;28;91211;-91
2023/04/16 00:15:53;;;;;;;;;;;10.30;99.90;10.70;99835.00;;;;339205;28;96059;-90
2023/04/16 00:16:06;;;;;;;;;;;10.30;99.90;10.80;99841.00;;;;339148;28;91938;-90
2023/04/16 00:16:17;;;;;;;;;;;10.30;99.90;10.80;99837.00;;;;335233;29;96799;-90
2023/04/16 00:16:29;;;;;;;;;;;10.30;99.90;10.80;99831.00;;;;333659;29;92206;-90
2023/04/16 00:16:41;;;;;;;;;;;10.30;99.90;10.80;99835.00;;;;335355;29;95063;-90
2023/04/16 00:16:53;;;;;;;;;;;10.30;99.90;10.80;99838.00;;;;333818;29;92944;-90
2023/04/16 00:17:05;;;;;;;;;;;10.30;99.90;10.90;99840.00;;;;335242;29;95784;-90
2023/04/16 00:17:18;;;;;;;;;;;10.30;99.90;10.70;99836.00;;;;334887;29;92243;-91
2023/04/16 00:17:30;;;;;;;;;;;10.30;99.90;10.70;99839.00;;;;336263;28;94893;-90
2023/04/16 00:17:42;;;;;;;;;;;10.30;99.90;10.60;99833.00;;;;336486;28;91017;-90
2023/04/16 00:17:53;;;;;;;;;;;10.30;99.90;10.70;99842.00;;;;336815;28;92566;-90
2023/04/16 00:18:05;;;;;;;;;;;10.30;99.90;10.70;99842.00;;;;339057;28;91961;-90
2023/04/16 00:18:17;;;;;;;;;;;10.30;99.90;10.70;99840.00;;;;336672;28;93499;-90
2023/04/16 00:18:29;;;;;;;;;;;10.30;99.90;10.60;99834.00;;;;337342;28;92136;-90
2023/04/16 00:18:41;;;;;;;;;;;10.30;99.90;10.80;99833.00;;;;340654;28;93716;-91
2023/04/16 00:18:53;;;;;;;;;;;10.30;99.90;10.80;99835.00;;;;336368;28;92130;-90
2023/04/16 00:19:05;;;;;;;;;;;10.30;99.90;10.80;99829.00;;;;336586;28;93629;-91
2023/04/16 00:19:16;;;;;;;;;;;10.30;99.90;10.70;99835.00;;;;336276;28;92053;-90
2023/04/16 00:19:28;;;;;;;;;;;10.30;99.90;10.70;99837.00;;;;334071;29;93586;-91
2023/04/16 00:19:40;;;;;;;;;;;10.30;99.90;10.70;99836.00;;;;334871;29;91978;-90
2023/04/16 00:19:52;;;;;;;;;;;10.30;99.90;10.80;99838.00;;;;336440;28;94853;-91
2023/04/16 00:20:04;;;;;;;;;;;10.30;99.90;10.80;99837.00;;;;336430;28;91942;-90
2023/04/16 00:20:16;;;;;;;;;;;10.30;99.90;10.80;99833.00;;;;333571;29;92652;-90
2023/04/16 00:20:28;;;;;;;;;;;10.30;99.90;10.80;99835.00;;;;334833;29;92230;-90
2023/04/16 00:20:40;;;;;;;;;;;10.30;99.90;10.90;99835.00;;;;337933;28;92360;-90
2023/04/16 00:20:53;;;;;;;;;;;10.30;99.90;10.90;99835.00;;;;334849;29;92980;-91
2023/04/16 00:21:06;;;;;;;;;;;10.30;99.90;10.70;99835.00;;;;336324;28;95663;-90
2023/04/16 00:21:17;;;;;;;;;;;10.30;99.90;10.70;99836.00;;;;336023;28;92095;-90
2023/04/16 00:21:30;;;;;;;;;;;10.30;99.90;10.80;99835.00;;;;336746;28;92862;-91
2023/04/16 00:21:42;;;;;;;;;;;10.30;99.90;10.80;99838.00;;;;340390;28;91921;-90
2023/04/16 00:21:53;;;;;;;;;;;10.30;99.90;10.80;99833.00;;;;336531;28;94762;-90
2023/04/16 00:22:05;;;;;;;;;;;10.30;99.90;10.70;99832.00;;;;336401;28;91222;-90
2023/04/16 00:22:17;;;;;;;;;;;10.30;99.90;10.80;99831.00;;;;337765;28;93391;-91
2023/04/16 00:22:29;;;;;;;;;;;10.30;99.90;10.70;99833.00;;;;336096;28;92137;-90
2023/04/16 00:22:41;;;;;;;;;;;10.30;99.90;10.80;99833.00;;;;333849;29;95437;-91
2023/04/16 00:22:53;;;;;;;;;;;10.30;99.90;10.80;99834.00;;;;337427;28;92191;-90
2023/04/16 00:23:05;;;;;;;;;;;10.30;99.90;10.70;99832.00;;;;336146;28;95787;-90
2023/04/16 00:23:16;;;;;;;;;;;10.30;99.90;10.70;99828.00;;;;334936;29;91903;-90
2023/04/16 00:23:28;;;;;;;;;;;10.30;99.90;10.80;99832.00;;;;338840;28;95214;-90
2023/04/16 00:23:40;;;;;;;;;;;10.30;99.90;10.80;99828.00;;;;336067;28;91991;-90
2023/04/16 00:23:52;;;;;;;;;;;10.30;99.90;10.70;99829.00;;;;337811;28;93123;-91
2023/04/16 00:24:04;;;;;;;;;;;10.30;99.90;10.70;99829.00;;;;337619;28;91863;-90
2023/04/16 00:24:16;;;;;;;;;;;10.30;99.90;10.70;99831.00;;;;335109;29;94597;-91
2023/04/16 00:24:27;;;;;;;;;;;10.30;99.90;10.60;99832.00;;;;337328;28;92134;-90
2023/04/16 00:24:40;;;;;;;;;;;10.30;99.90;10.70;99829.00;;;;336419;28;93019;-90
2023/04/16 00:24:52;;;;;;;;;;;10.30;99.90;10.70;99830.00;;;;335913;28;92907;-90
2023/04/16 00:25:04;;;;;;;;;;;10.30;99.90;10.80;99832.00;;;;336422;28;94036;-90
2023/04/16 00:25:16;;;;;;;;;;;10.30;99.90;10.70;99838.00;;;;336182;28;91165;-90
2023/04/16 00:25:27;;;;;;;;;;;10.30;99.90;10.60;99829.00;;;;336447;28;95898;-91
2023/04/16 00:25:39;;;;;;;;;;;10.30;99.90;10.60;99828.00;;;;337316;28;92146;-90
2023/04/16 00:25:52;;;;;;;;;;;10.30;99.90;10.70;99840.00;;;;335017;29;93150;-90
2023/04/16 00:26:04;;;;;;;;;;;10.30;99.90;10.70;99829.00;;;;334688;29;92131;-91
2023/04/16 00:26:16;;;;;;;;;;;10.30;99.90;10.70;99832.00;;;;339045;28;92673;-91
2023/04/16 00:26:28;;;;;;;;;;;10.30;99.90;10.70;99834.00;;;;334933;29;91971;-90
2023/04/16 00:26:39;;;;;;;;;;;10.30;99.90;10.60;99835.00;;;;336360;28;96281;-91
2023/04/16 00:26:51;;;;;;;;;;;10.30;99.90;10.60;99833.00;;;;338836;28;92802;-90
2023/04/16 00:27:03;;;;;;;;;;;10.30;99.90;10.60;99831.00;;;;337687;28;93733;-89
2023/04/16 00:27:15;;;;;;;;;;;10.30;99.90;10.60;99833.00;;;;338804;28;91984;-90
2023/04/16 00:27:27;;;;;;;;;;;10.20;99.90;10.50;99832.00;;;;336432;28;96483;-90
2023/04/16 00:27:38;;;;;;;;;;;10.20;99.90;10.60;99836.00;;;;336016;28;92144;-90
2023/04/16 00:27:50;;;;;;;;;;;10.20;99.90;10.50;99835.00;;;;337657;28;95212;-90
2023/04/16 00:28:03;;;;;;;;;;;10.20;99.90;10.50;99831.00;;;;337665;28;91899;-90
2023/04/16 00:28:15;;;;;;;;;;;10.20;99.90;10.60;99831.00;;;;335168;29;93764;-90
2023/04/16 00:28:27;;;;;;;;;;;10.20;99.90;10.60;99833.00;;;;334535;29;92138;-90
2023/04/16 00:28:38;;;;;;;;;;;10.20;99.90;10.60;99828.00;;;;337712;28;95798;-90
2023/04/16 00:28:50;;;;;;;;;;;10.20;99.90;10.60;99831.00;;;;337586;28;92784;-90
2023/04/16 00:29:02;;;;;;;;;;;10.20;99.90;10.60;99831.00;;;;334899;29;93762;-90
2023/04/16 00:29:14;;;;;;;;;;;10.20;99.90;10.60;99836.00;;;;334842;29;91916;-90
2023/04/16 00:29:27;;;;;;;;;;;10.20;99.90;10.60;99836.00;;;;337731;28;93627;-90
2023/04/16 00:29:39;;;;;;;;;;;10.20;99.90;10.60;99842.00;;;;337376;28;92078;-91
2023/04/16 00:29:51;;;;;;;;;;;10.20;99.90;10.70;99833.00;;;;334786;29;91470;-91
2023/04/16 00:30:03;;;;;;;;;;;10.20;99.90;10.70;99840.00;;;;336050;28;92060;-91
2023/04/16 00:30:15;;;;;;;;;;;10.20;99.90;10.70;99834.00;;;;335189;29;94590;-91
2023/04/16 00:30:27;;;;;;;;;;;10.20;99.90;10.60;99824.00;;;;334720;29;92109;-90
2023/04/16 00:30:39;;;;;;;;;;;10.20;99.90;10.50;99837.00;;;;336500;28;93490;-91
2023/04/16 00:30:51;;;;;;;;;;;10.20;99.90;10.50;99836.00;;;;333584;29;92850;-91
2023/04/16 00:31:03;;;;;;;;;;;10.20;99.90;10.50;99835.00;;;;336199;28;95904;-90
2023/04/16 00:31:15;;;;;;;;;;;10.20;99.90;10.50;99835.00;;;;336155;28;91244;-91
2023/04/16 00:31:31;;;;;;;;;;;10.20;99.90;10.60;99832.00;;;;338797;28;95383;-91
2023/04/16 00:31:43;;;;;;;;;;;10.20;99.90;10.60;99833.00;;;;336068;28;91924;-91
2023/04/16 00:31:54;;;;;;;;;;;10.10;99.90;10.60;99841.00;;;;336403;28;93889;-92
2023/04/16 00:32:06;;;;;;;;;;;10.20;99.90;10.60;99838.00;;;;338777;28;91175;-91
2023/04/16 00:32:18;;;;;;;;;;;10.20;99.90;10.60;99833.00;;;;336201;28;92664;-91
2023/04/16 00:32:30;;;;;;;;;;;10.20;99.90;10.60;99836.00;;;;338558;28;92145;-91
2023/04/16 00:32:42;;;;;;;;;;;10.20;99.90;10.50;99834.00;;;;336293;28;93339;-91
2023/04/16 00:32:54;;;;;;;;;;;10.10;99.90;10.50;99837.00;;;;336241;28;91999;-91
2023/04/16 00:33:06;;;;;;;;;;;10.10;99.90;10.50;99840.00;;;;335090;29;94500;-90
2023/04/16 00:33:17;;;;;;;;;;;10.10;99.90;10.60;99838.00;;;;335382;28;92069;-91
2023/04/16 00:33:29;;;;;;;;;;;10.20;99.90;10.50;99833.00;;;;338725;28;94880;-91
2023/04/16 00:33:41;;;;;;;;;;;10.10;99.90;10.50;99840.00;;;;336231;28;91876;-91
2023/04/16 00:33:53;;;;;;;;;;;10.10;99.90;10.50;99832.00;;;;336369;28;93442;-91
2023/04/16 00:34:05;;;;;;;;;;;10.10;99.90;10.50;99841.00;;;;338264;28;92173;-91
2023/04/16 00:34:17;;;;;;;;;;;10.10;99.90;10.60;99841.00;;;;335053;29;94170;-91
2023/04/16 00:34:29;;;;;;;;;;;10.10;99.90;10.70;99841.00;;;;334835;29;92115;-91
2023/04/16 00:34:40;;;;;;;;;;;10.10;99.90;10.60;99840.00;;;;336330;28;94912;-91
2023/04/16 00:34:52;;;;;;;;;;;10.10;99.90;10.50;99841.00;;;;338902;28;92857;-91
2023/04/16 00:35:05;;;;;;;;;;;10.10;99.90;10.60;99845.00;;;;340384;28;93274;-91
2023/04/16 00:35:17;;;;;;;;;;;10.10;99.90;10.60;99831.00;;;;336128;28;91121;-91
2023/04/16 00:35:28;;;;;;;;;;;10.10;99.90;10.50;99841.00;;;;336474;28;92164;-91
2023/04/16 00:35:40;;;;;;;;;;;10.10;99.90;10.50;99838.00;;;;334839;29;92037;-91
2023/04/16 00:35:52;;;;;;;;;;;10.10;99.90;10.50;99836.00;;;;336365;28;94113;-91
2023/04/16 00:36:04;;;;;;;;;;;10.10;99.90;10.50;99841.00;;;;336168;28;91141;-91
2023/04/16 00:36:16;;;;;;;;;;;10.10;99.90;10.60;99844.00;;;;337749;28;95062;-91
2023/04/16 00:36:28;;;;;;;;;;;10.10;99.90;10.50;99838.00;;;;334624;29;92146;-91
2023/04/16 00:36:40;;;;;;;;;;;10.10;99.90;10.40;99839.00;;;;335153;29;91133;-91
2023/04/16 00:36:51;;;;;;;;;;;10.10;99.90;10.40;99839.00;;;;336210;28;92784;-91
2023/04/16 00:37:03;;;;;;;;;;;10.10;99.90;10.40;99846.00;;;;338487;28;93643;-90
2023/04/16 00:37:15;;;;;;;;;;;10.10;99.90;10.40;99838.00;;;;337519;28;92021;-91
2023/04/16 00:37:27;;;;;;;;;;;10.10;99.90;10.40;99843.00;;;;337685;28;93579;-91
2023/04/16 00:37:39;;;;;;;;;;;10.10;99.90;10.40;99840.00;;;;338701;28;92087;-91
2023/04/16 00:37:51;;;;;;;;;;;10.10;99.90;10.40;99831.00;;;;336396;28;95384;-91
2023/04/16 00:38:03;;;;;;;;;;;10.10;99.90;10.50;99838.00;;;;335972;28;92001;-91
2023/04/16 00:38:15;;;;;;;;;;;10.10;99.90;10.60;99843.00;;;;337525;28;93996;-91
2023/04/16 00:38:29;;;;;;;;;;;10.10;99.90;10.60;99836.00;;;;333488;29;92007;-91
2023/04/16 00:38:41;;;;;;;;;;;10.10;99.90;10.40;99842.00;;;;336226;28;94946;-91
2023/04/16 00:38:53;;;;;;;;;;;10.10;99.90;10.40;99845.00;;;;336165;28;92858;-91
2023/04/16 00:39:05;;;;;;;;;;;10.10;99.90;10.30;99838.00;;;;336184;28;93668;-91
2023/04/16 00:39:17;;;;;;;;;;;10.10;99.90;10.30;99840.00;;;;336210;28;92186;-91
2023/04/16 00:39:28;;;;;;;;;;;10.10;99.90;10.40;99843.00;;;;335227;28;94718;-90
2023/04/16 00:39:40;;;;;;;;;;;10.10;99.90;10.40;99851.00;;;;337534;28;91313;-91
2023/04/16 00:39:52;;;;;;;;;;;10.00;99.90;10.40;99840.00;;;;333968;29;95869;-91
2023/04/16 00:40:05;;;;;;;;;;;10.10;99.90;10.40;99840.00;;;;335189;29;91980;-91
2023/04/16 00:40:17;;;;;;;;;;;10.00;99.90;10.40;99836.00;;;;336638;28;92016;-90
2023/04/16 00:40:29;;;;;;;;;;;10.00;99.90;10.40;99836.00;;;;337706;28;91841;-91
2023/04/16 00:40:40;;;;;;;;;;;10.10;99.90;10.40;99833.00;;;;339215;28;95419;-91
2023/04/16 00:40:52;;;;;;;;;;;10.00;99.90;10.40;99847.00;;;;337492;28;92133;-91
2023/04/16 00:41:04;;;;;;;;;;;10.00;99.90;10.50;99832.00;;;;338042;28;91854;-90
2023/04/16 00:41:16;;;;;;;;;;;10.00;99.90;10.50;99841.00;;;;337751;28;91984;-91
2023/04/16 00:41:28;;;;;;;;;;;10.00;99.90;10.60;99844.00;;;;335864;28;92647;-91
2023/04/16 00:41:42;;;;;;;;;;;10.00;99.90;10.60;99838.00;;;;335115;29;92122;-91
2023/04/16 00:41:53;;;;;;;;;;;10.00;99.90;10.60;99834.00;;;;339190;28;96214;-91
2023/04/16 00:42:05;;;;;;;;;;;10.00;99.90;10.60;99836.00;;;;337836;28;91021;-91
2023/04/16 00:42:17;;;;;;;;;;;10.00;99.90;10.50;99838.00;;;;336484;28;94857;-91
2023/04/16 00:42:29;;;;;;;;;;;10.10;99.90;10.50;99834.00;;;;337373;28;92138;-91
2023/04/16 00:42:41;;;;;;;;;;;10.00;99.90;10.60;99837.00;;;;335087;29;94712;-91
2023/04/16 00:42:52;;;;;;;;;;;10.00;99.90;10.50;99838.00;;;;337526;28;93035;-91
2023/04/16 00:43:04;;;;;;;;;;;10.00;99.90;10.50;99837.00;;;;336944;28;93719;-91
2023/04/16 00:43:23;;;;;;;;;;;10.00;99.90;10.50;99836.00;;;;338093;28;91969;-91
2023/04/16 00:43:35;;;;;;;;;;;10.00;99.90;10.60;99833.00;;;;339429;28;93290;-90
2023/04/16 00:43:47;;;;;;;;;;;10.00;99.90;10.70;99839.00;;;;335394;28;92073;-91
2023/04/16 00:43:59;;;;;;;;;;;10.10;99.90;10.60;99838.00;;;;338501;28;91641;-91
2023/04/16 00:44:11;;;;;;;;;;;10.10;99.90;10.60;99841.00;;;;339538;28;91956;-91
2023/04/16 00:44:22;;;;;;;;;;;10.10;99.90;10.60;99840.00;;;;334439;29;93792;-90
2023/04/16 00:44:34;;;;;;;;;;;10.00;99.90;10.60;99838.00;;;;338229;28;92091;-90
2023/04/16 00:44:46;;;;;;;;;;;10.10;99.90;10.50;99837.00;;;;336954;28;94351;-91
2023/04/16 00:44:58;;;;;;;;;;;10.10;99.90;10.50;99834.00;;;;336956;28;92909;-90
2023/04/16 00:45:10;;;;;;;;;;;10.00;99.90;10.40;99841.00;;;;337166;28;94568;-90
2023/04/16 00:45:22;;;;;;;;;;;10.10;99.90;10.40;99850.00;;;;338095;28;92022;-91
2023/04/16 00:45:34;;;;;;;;;;;10.00;99.90;10.40;99842.00;;;;335798;29;94691;-91
2023/04/16 00:45:46;;;;;;;;;;;10.00;99.90;10.40;99840.00;;;;336857;28;91322;-91
2023/04/16 00:45:58;;;;;;;;;;;10.00;99.90;10.40;99844.00;;;;335866;29;92695;-91
2023/04/16 00:46:09;;;;;;;;;;;10.00;99.90;10.30;99843.00;;;;335955;29;91014;-91
2023/04/16 00:46:22;;;;;;;;;;;10.00;99.90;10.30;99841.00;;;;337282;28;94174;-91
2023/04/16 00:46:34;;;;;;;;;;;10.00;99.90;10.40;99841.00;;;;337514;28;91056;-90
2023/04/16 00:46:46;;;;;;;;;;;10.00;99.90;10.40;99838.00;;;;336544;29;92440;-90
2023/04/16 00:46:58;;;;;;;;;;;10.00;99.90;10.50;99842.00;;;;337688;28;92056;-90
2023/04/16 00:47:10;;;;;;;;;;;10.00;99.90;10.40;99853.00;;;;338031;28;93648;-90
2023/04/16 00:47:21;;;;;;;;;;;10.00;99.90;10.40;99842.00;;;;339042;28;91153;-89
2023/04/16 00:47:33;;;;;;;;;;;10.00;99.90;10.40;99841.00;;;;337869;28;93675;-92
2023/04/16 00:47:45;;;;;;;;;;;10.00;99.90;10.40;99842.00;;;;337642;28;91198;-89
2023/04/16 00:47:57;;;;;;;;;;;10.00;99.90;10.50;99837.00;;;;338012;28;94949;-89
2023/04/16 00:48:11;;;;;;;;;;;10.00;99.90;10.40;99837.00;;;;341792;28;91203;-90
2023/04/16 00:48:23;;;;;;;;;;;10.00;99.90;10.40;99840.00;;;;336683;29;94547;-90
2023/04/16 00:48:35;;;;;;;;;;;10.00;99.90;10.50;99837.00;;;;335224;29;91027;-90
2023/04/16 00:48:47;;;;;;;;;;;10.00;99.90;10.40;99842.00;;;;340930;28;94540;-90
2023/04/16 00:48:59;;;;;;;;;;;10.00;99.90;10.50;99839.00;;;;338940;28;93104;-90
2023/04/16 00:49:11;;;;;;;;;;;10.00;99.90;10.40;99841.00;;;;340366;28;94866;-91
2023/04/16 00:49:23;;;;;;;;;;;9.90;99.90;10.40;99839.00;;;;339009;28;92092;-89
2023/04/16 00:49:35;;;;;;;;;;;10.00;99.90;10.50;99838.00;;;;337014;28;92746;-91
2023/04/16 00:49:47;;;;;;;;;;;9.90;99.90;10.50;99840.00;;;;336592;28;91884;-91
2023/04/16 00:49:58;;;;;;;;;;;10.00;99.90;10.40;99837.00;;;;335536;29;92324;-91
2023/04/16 00:50:10;;;;;;;;;;;10.00;99.90;10.30;99838.00;;;;335117;29;91982;-91
2023/04/16 00:50:22;;;;;;;;;;;10.00;99.90;10.30;99839.00;;;;335467;29;94825;-91
2023/04/16 00:50:35;;;;;;;;;;;9.90;99.90;10.40;99839.00;;;;336387;28;91963;-91
2023/04/16 00:50:47;;;;;;;;;;;10.00;99.90;10.40;99839.00;;;;338073;28;92507;-91
2023/04/16 00:51:00;;;;;;;;;;;10.00;99.90;10.30;99834.00;;;;336432;28;92951;-91
2023/04/16 00:51:12;;;;;;;;;;;9.90;99.90;10.40;99844.00;;;;336547;28;95851;-90
2023/04/16 00:51:23;;;;;;;;;;;9.90;99.90;10.50;99838.00;;;;336315;28;91251;-91
2023/04/16 00:51:35;;;;;;;;;;;9.90;99.90;10.30;99835.00;;;;335348;29;96352;-91
2023/04/16 00:51:47;;;;;;;;;;;9.90;99.90;10.30;99834.00;;;;335181;29;91900;-91
2023/04/16 00:52:01;;;;;;;;;;;10.00;99.90;10.30;99845.00;;;;335114;29;95279;-91
2023/04/16 00:52:13;;;;;;;;;;;9.90;99.90;10.30;99845.00;;;;336448;28;91010;-91
2023/04/16 00:52:25;;;;;;;;;;;9.90;99.90;10.20;99842.00;;;;339117;28;93838;-91
2023/04/16 00:52:37;;;;;;;;;;;10.00;99.90;10.20;99844.00;;;;336163;28;92049;-90
2023/04/16 00:52:49;;;;;;;;;;;9.90;99.90;10.20;99847.00;;;;336658;28;93442;-91
2023/04/16 00:53:01;;;;;;;;;;;9.90;99.90;10.30;99842.00;;;;336257;28;92128;-91
2023/04/16 00:53:13;;;;;;;;;;;9.90;99.90;10.30;99838.00;;;;335155;29;92098;-91
2023/04/16 00:53:25;;;;;;;;;;;9.90;99.90;10.30;99847.00;;;;336288;28;92092;-91
2023/04/16 00:53:37;;;;;;;;;;;9.90;99.90;10.30;99842.00;;;;336647;28;93420;-91
2023/04/16 00:53:49;;;;;;;;;;;9.90;99.90;10.30;99841.00;;;;335160;29;91165;-91
2023/04/16 00:54:01;;;;;;;;;;;9.90;99.90;10.20;99848.00;;;;336625;28;94673;-91
2023/04/16 00:54:12;;;;;;;;;;;9.90;99.90;10.30;99836.00;;;;337755;28;91973;-91
2023/04/16 00:54:24;;;;;;;;;;;9.90;99.90;10.30;99842.00;;;;336484;28;94924;-91
2023/04/16 00:54:36;;;;;;;;;;;9.90;99.90;10.30;99847.00;;;;336187;28;92167;-91
2023/04/16 00:54:48;;;;;;;;;;;9.90;99.90;10.40;99846.00;;;;337666;28;91221;-91
2023/04/16 00:55:00;;;;;;;;;;;9.90;99.90;10.40;99841.00;;;;335057;28;92896;-90
2023/04/16 00:55:12;;;;;;;;;;;9.90;99.90;10.40;99839.00;;;;336402;28;95952;-91
2023/04/16 00:55:24;;;;;;;;;;;9.90;99.90;10.40;99847.00;;;;335074;28;92148;-91
2023/04/16 00:55:36;;;;;;;;;;;9.90;99.90;10.30;99848.00;;;;335355;29;92295;-91
2023/04/16 00:55:47;;;;;;;;;;;9.90;99.90;10.30;99846.00;;;;336393;28;92744;-91
2023/04/16 00:56:01;;;;;;;;;;;9.90;99.90;10.30;99846.00;;;;337842;28;93756;-91
2023/04/16 00:56:13;;;;;;;;;;;9.90;99.90;10.40;99844.00;;;;337785;28;91062;-91
2023/04/16 00:56:25;;;;;;;;;;;9.90;99.90;10.40;99833.00;;;;336573;28;93647;-90
2023/04/16 00:56:37;;;;;;;;;;;9.90;99.90;10.30;99845.00;;;;336164;28;92134;-91
2023/04/16 00:56:49;;;;;;;;;;;9.90;99.90;10.30;99839.00;;;;336582;28;96163;-91
2023/04/16 00:57:01;;;;;;;;;;;9.90;99.90;10.30;99842.00;;;;336227;28;93014;-91
2023/04/16 00:57:13;;;;;;;;;;;9.90;99.90;10.30;99843.00;;;;335264;28;94987;-91
2023/04/16 00:57:25;;;;;;;;;;;9.90;99.90;10.30;99839.00;;;;335111;29;91174;-91
2023/04/16 00:57:38;;;;;;;;;;;9.90;99.90;10.30;99853.00;;;;335069;29;94491;-91
2023/04/16 00:57:50;;;;;;;;;;;9.90;99.90;10.30;99845.00;;;;335102;29;91224;-91
2023/04/16 00:58:02;;;;;;;;;;;9.90;99.90;10.30;99847.00;;;;333999;29;93081;-90
2023/04/16 00:58:14;;;;;;;;;;;9.90;99.90;10.30;99835.00;;;;334922;28;92126;-91
2023/04/16 00:58:26;;;;;;;;;;;9.90;99.90;10.30;99839.00;;;;337911;28;95871;-91
2023/04/16 00:58:38;;;;;;;;;;;9.90;99.90;10.20;99849.00;;;;336317;28;91711;-91
2023/04/16 00:58:50;;;;;;;;;;;9.90;99.90;10.10;99844.00;;;;340332;28;94811;-89
2023/04/16 00:59:02;;;;;;;;;;;9.80;99.90;10.10;99847.00;;;;333632;29;93116;-90
2023/04/16 00:59:14;;;;;;;;;;;9.80;99.90;10.10;99852.00;;;;334061;29;94768;-91
2023/04/16 00:59:26;;;;;;;;;;;9.80;99.90;10.30;99848.00;;;;336470;28;91934;-91